createdAt,value
2022-11-18T00:00:23.809Z,98054.69
2022-11-18T00:01:25.931Z,98053.00
2022-11-18T00:02:27.718Z,98057.38
2022-11-18T00:03:29.381Z,98065.09
2022-11-18T00:04:31.065Z,98061.56
2022-11-18T00:05:32.711Z,98074.56
2022-11-18T00:06:34.367Z,98064.25
2022-11-18T00:07:36.010Z,98074.69
2022-11-18T00:08:37.887Z,98072.91
2022-11-18T00:09:39.568Z,98072.19
2022-11-18T00:10:41.221Z,98064.38
2022-11-18T00:12:01.337Z,98060.81
2022-11-18T00:13:21.257Z,98062.56
2022-11-18T00:14:27.212Z,98064.25
2022-11-18T00:15:31.711Z,98065.19
2022-11-18T00:16:33.571Z,98060.91
2022-11-18T00:17:35.121Z,98063.41
2022-11-18T00:18:37.698Z,98057.19
2022-11-18T00:19:40.255Z,98059.06
2022-11-18T00:20:41.836Z,98063.78
2022-11-18T00:21:43.498Z,98067.97
2022-11-18T00:22:46.421Z,98060.97
2022-11-18T00:23:48.960Z,98063.69
2022-11-18T00:24:50.562Z,98064.59
2022-11-18T00:25:52.168Z,98063.69
2022-11-18T00:26:54.751Z,98056.78
2022-11-18T00:27:56.563Z,98056.41
2022-11-18T00:28:58.176Z,98055.56
2022-11-18T00:29:59.752Z,98057.44
2022-11-18T00:31:06.414Z,98059.94
2022-11-18T00:32:08.048Z,98063.41
2022-11-18T00:33:09.616Z,98064.78
2022-11-18T00:34:13.897Z,98063.09
2022-11-18T00:35:15.555Z,98061.63
2022-11-18T00:36:17.261Z,98065.81
2022-11-18T00:37:18.901Z,98059.88
2022-11-18T00:38:20.598Z,98051.88
2022-11-18T00:39:23.041Z,98066.63
2022-11-18T00:40:25.861Z,98065.81
2022-11-18T00:41:47.355Z,98059.94
2022-11-18T00:42:51.997Z,98063.50
2022-11-18T00:43:53.543Z,98060.16
2022-11-18T00:44:55.146Z,98061.91
2022-11-18T00:45:57.205Z,98052.53
2022-11-18T00:46:59.029Z,98052.41
2022-11-18T00:48:00.637Z,98064.59
2022-11-18T00:49:02.195Z,98054.28
2022-11-18T00:50:04.095Z,98065.56
2022-11-18T00:51:14.618Z,98054.19
2022-11-18T00:52:16.268Z,98054.09
2022-11-18T00:53:18.706Z,98046.34
2022-11-18T00:54:20.341Z,98055.97
2022-11-18T00:55:21.885Z,98050.03
2022-11-18T00:56:23.541Z,98057.63
2022-11-18T00:57:25.146Z,98055.13
2022-11-18T00:58:26.779Z,98055.97
2022-11-18T00:59:28.338Z,98053.25
2022-11-18T01:00:29.901Z,98058.56
2022-11-18T01:01:32.128Z,98055.97
2022-11-18T01:02:33.783Z,98055.13
2022-11-18T01:03:35.397Z,98057.72
2022-11-18T01:04:37.039Z,98056.06
2022-11-18T01:05:39.154Z,98060.34
2022-11-18T01:06:41.332Z,98060.34
2022-11-18T01:07:42.962Z,98062.94
2022-11-18T01:08:44.646Z,98061.25
2022-11-18T01:09:46.202Z,98068.25
2022-11-18T01:10:48.964Z,98067.41
2022-11-18T01:12:09.076Z,98067.22
2022-11-18T01:13:19.484Z,98072.41
2022-11-18T01:14:21.134Z,98073.38
2022-11-18T01:15:22.723Z,98073.47
2022-11-18T01:16:27.025Z,98087.31
2022-11-18T01:17:32.020Z,98086.50
2022-11-18T01:18:33.603Z,98094.22
2022-11-18T01:19:35.221Z,98095.13
2022-11-18T01:20:37.408Z,98089.00
2022-11-18T01:21:39.028Z,98090.59
2022-11-18T01:22:40.657Z,98093.28
2022-11-18T01:23:42.290Z,98094.31
2022-11-18T01:24:43.989Z,98095.97
2022-11-18T01:25:47.853Z,98093.28
2022-11-18T01:26:49.592Z,98098.47
2022-11-18T01:27:51.456Z,98098.47
2022-11-18T01:28:57.601Z,98098.69
2022-11-18T01:29:59.422Z,98097.75
2022-11-18T01:31:12.422Z,98093.47
2022-11-18T01:32:29.322Z,98103.06
2022-11-18T01:33:31.121Z,98098.47
2022-11-18T01:34:32.736Z,98101.09
2022-11-18T01:35:38.157Z,98107.06
2022-11-18T01:36:39.763Z,98108.00
2022-11-18T01:37:41.354Z,98111.50
2022-11-18T01:38:43.125Z,98119.44
2022-11-18T01:39:44.735Z,98119.53
2022-11-18T01:40:46.306Z,98122.16
2022-11-18T01:41:48.035Z,98128.19
2022-11-18T01:42:49.624Z,98120.47
2022-11-18T01:43:54.213Z,98135.91
2022-11-18T01:45:21.539Z,98124.75
2022-11-18T01:46:25.994Z,98124.94
2022-11-18T01:47:32.938Z,98144.75
2022-11-18T01:48:35.219Z,98129.97
2022-11-18T01:49:36.844Z,98139.25
2022-11-18T01:50:46.874Z,98142.78
2022-11-18T01:51:53.090Z,98140.94
2022-11-18T01:53:01.142Z,98143.56
2022-11-18T01:54:09.615Z,98141.13
2022-11-18T01:55:18.286Z,98136.84
2022-11-18T01:56:26.659Z,98145.59
2022-11-18T01:57:30.652Z,98141.50
2022-11-18T01:58:35.193Z,98145.69
2022-11-18T01:59:41.805Z,98154.44
2022-11-18T02:00:43.400Z,98158.72
2022-11-18T02:01:45.469Z,98163.09
2022-11-18T02:02:48.285Z,98160.56
2022-11-18T02:03:51.697Z,98162.09
2022-11-18T02:04:56.661Z,98168.09
2022-11-18T02:05:59.659Z,98171.66
2022-11-18T02:07:01.726Z,98152.28
2022-11-18T02:08:05.867Z,98171.47
2022-11-18T02:09:07.581Z,98169.78
2022-11-18T02:10:16.585Z,98175.66
2022-11-18T02:11:37.211Z,98174.44
2022-11-18T02:12:39.150Z,98182.63
2022-11-18T02:13:40.893Z,98176.03
2022-11-18T02:14:46.171Z,98184.47
2022-11-18T02:16:00.115Z,98188.66
2022-11-18T02:17:30.475Z,98187.53
2022-11-18T02:18:50.355Z,98184.63
2022-11-18T02:20:13.111Z,98184.63
2022-11-18T02:21:34.197Z,98189.97
2022-11-18T02:23:03.630Z,98193.41
2022-11-18T02:24:22.472Z,98190.81
2022-11-18T02:25:24.012Z,98201.22
2022-11-18T02:26:25.695Z,98197.78
2022-11-18T02:27:48.488Z,98201.22
2022-11-18T02:29:40.734Z,98203.84
2022-11-18T02:30:50.395Z,98210.63
2022-11-18T02:31:58.193Z,98214.28
2022-11-18T02:33:11.256Z,98214.28
2022-11-18T02:34:48.858Z,98212.41
2022-11-18T02:36:01.893Z,98222.84
2022-11-18T02:37:30.737Z,98225.56
2022-11-18T02:38:37.081Z,98221.34
2022-11-18T02:39:47.927Z,98237.00
2022-11-18T02:40:53.731Z,98229.19
2022-11-18T02:41:59.935Z,98229.34
2022-11-18T02:43:18.338Z,98226.94
2022-11-18T02:44:22.347Z,98228.22
2022-11-18T02:45:26.948Z,98230.09
2022-11-18T02:46:35.252Z,98237.19
2022-11-18T02:47:38.169Z,98227.13
2022-11-18T02:48:44.843Z,98238.59
2022-11-18T02:49:54.391Z,98233.09
2022-11-18T02:50:58.243Z,98235.13
2022-11-18T02:52:01.708Z,98236.06
2022-11-18T02:53:06.436Z,98232.63
2022-11-18T02:54:10.363Z,98224.41
2022-11-18T02:55:14.833Z,98231.97
2022-11-18T02:56:18.769Z,98225.16
2022-11-18T02:57:22.223Z,98227.13
2022-11-18T02:58:25.914Z,98233.25
2022-11-18T02:59:29.194Z,98232.63
2022-11-18T03:00:31.749Z,98231.88
2022-11-18T03:01:35.677Z,98241.47
2022-11-18T03:02:46.315Z,98239.88
2022-11-18T03:03:48.294Z,98236.63
2022-11-18T03:04:54.348Z,98238.28
2022-11-18T03:06:19.677Z,98236.78
2022-11-18T03:07:34.057Z,98238.56
2022-11-18T03:09:03.116Z,98244.03
2022-11-18T03:10:05.270Z,98248.50
2022-11-18T03:11:14.895Z,98246.81
2022-11-18T03:12:22.726Z,98239.00
2022-11-18T03:13:29.763Z,98245.72
2022-11-18T03:14:46.447Z,98250.16
2022-11-18T03:16:06.751Z,98246.81
2022-11-18T03:17:28.415Z,98248.41
2022-11-18T03:18:32.998Z,98252.78
2022-11-18T03:19:34.528Z,98249.34
2022-11-18T03:20:47.529Z,98245.91
2022-11-18T03:22:06.582Z,98242.56
2022-11-18T03:23:19.422Z,98240.00
2022-11-18T03:24:29.008Z,98245.22
2022-11-18T03:25:42.953Z,98247.94
2022-11-18T03:26:50.798Z,98252.22
2022-11-18T03:28:09.072Z,98253.16
2022-11-18T03:29:15.823Z,98264.41
2022-11-18T03:30:21.662Z,98267.19
2022-11-18T03:31:41.378Z,98263.72
2022-11-18T03:32:50.143Z,98263.72
2022-11-18T03:34:00.100Z,98273.13
2022-11-18T03:35:23.916Z,98273.13
2022-11-18T03:36:32.669Z,98276.31
2022-11-18T03:37:35.826Z,98279.03
2022-11-18T03:38:42.507Z,98272.97
2022-11-18T03:39:51.234Z,98282.38
2022-11-18T03:40:57.483Z,98275.47
2022-11-18T03:42:08.160Z,98279.94
2022-11-18T03:43:15.531Z,98289.63
2022-11-18T03:44:26.347Z,98280.03
2022-11-18T03:45:46.053Z,98288.50
2022-11-18T03:46:51.734Z,98296.41
2022-11-18T03:48:05.538Z,98294.72
2022-11-18T03:49:11.229Z,98298.28
2022-11-18T03:50:24.040Z,98303.47
2022-11-18T03:51:52.040Z,98304.41
2022-11-18T03:52:55.013Z,98305.25
2022-11-18T03:54:13.658Z,98308.78
2022-11-18T03:55:20.504Z,98307.09
2022-11-18T03:56:29.439Z,98314.66
2022-11-18T03:57:40.833Z,98317.91
2022-11-18T03:58:50.963Z,98314.75
2022-11-18T04:00:05.906Z,98315.50
2022-11-18T04:01:17.274Z,98315.09
2022-11-18T04:02:26.074Z,98314.34
2022-11-18T04:03:27.942Z,98316.19
2022-11-18T04:04:29.950Z,98316.28
2022-11-18T04:05:36.179Z,98316.47
2022-11-18T04:07:32.483Z,98326.25
2022-11-18T04:08:39.233Z,98320.16
2022-11-18T04:09:49.365Z,98312.34
2022-11-18T04:11:43.284Z,98321.91
2022-11-18T04:13:07.827Z,98327.97
2022-11-18T04:14:10.241Z,98328.81
2022-11-18T04:15:12.660Z,98320.22
2022-11-18T04:16:14.411Z,98319.06
2022-11-18T04:17:19.796Z,98331.66
2022-11-18T04:18:21.571Z,98336.03
2022-11-18T04:19:23.677Z,98337.03
2022-11-18T04:20:26.705Z,98340.66
2022-11-18T04:21:28.347Z,98344.25
2022-11-18T04:22:29.889Z,98341.91
2022-11-18T04:23:31.482Z,98330.00
2022-11-18T04:24:33.303Z,98342.34
2022-11-18T04:25:35.760Z,98340.72
2022-11-18T04:26:37.318Z,98344.34
2022-11-18T04:27:39.006Z,98346.28
2022-11-18T04:28:40.785Z,98338.63
2022-11-18T04:29:42.470Z,98349.00
2022-11-18T04:30:44.070Z,98348.16
2022-11-18T04:31:45.665Z,98353.19
2022-11-18T04:32:47.693Z,98352.41
2022-11-18T04:33:49.278Z,98355.78
2022-11-18T04:34:50.797Z,98357.44
2022-11-18T04:35:52.370Z,98355.94
2022-11-18T04:36:54.472Z,98363.75
2022-11-18T04:37:56.047Z,98356.84
2022-11-18T04:38:57.641Z,98359.47
2022-11-18T04:39:59.330Z,98368.13
2022-11-18T04:41:01.105Z,98363.91
2022-11-18T04:42:02.683Z,98360.56
2022-11-18T04:43:04.280Z,98358.31
2022-11-18T04:44:13.087Z,98363.50
2022-11-18T04:45:15.000Z,98366.13
2022-11-18T04:46:16.524Z,98367.97
2022-11-18T04:47:18.434Z,98363.66
2022-11-18T04:48:20.175Z,98363.00
2022-11-18T04:49:22.601Z,98359.38
2022-11-18T04:50:24.160Z,98363.81
2022-11-18T04:51:25.734Z,98367.28
2022-11-18T04:52:27.733Z,98373.47
2022-11-18T04:53:29.324Z,98366.78
2022-11-18T04:54:30.897Z,98367.69
2022-11-18T04:55:36.209Z,98370.28
2022-11-18T04:56:38.965Z,98369.38
2022-11-18T04:57:41.118Z,98365.06
2022-11-18T04:58:42.758Z,98371.03
2022-11-18T04:59:44.380Z,98369.38
2022-11-18T05:00:46.231Z,98368.53
2022-11-18T05:01:49.421Z,98373.63
2022-11-18T05:02:51.197Z,98371.81
2022-11-18T05:03:52.781Z,98374.47
2022-11-18T05:04:54.327Z,98374.41
2022-11-18T05:05:55.896Z,98380.44
2022-11-18T05:06:58.650Z,98373.63
2022-11-18T05:08:00.307Z,98379.53
2022-11-18T05:09:02.163Z,98382.03
2022-11-18T05:10:04.068Z,98386.25
2022-11-18T05:11:39.878Z,98377.94
2022-11-18T05:12:50.382Z,98382.53
2022-11-18T05:13:52.071Z,98378.28
2022-11-18T05:14:53.761Z,98386.88
2022-11-18T05:15:55.314Z,98390.44
2022-11-18T05:16:58.756Z,98393.13
2022-11-18T05:18:00.334Z,98384.38
2022-11-18T05:19:03.533Z,98383.38
2022-11-18T05:20:05.901Z,98381.88
2022-11-18T05:21:07.700Z,98382.53
2022-11-18T05:22:09.288Z,98389.50
2022-11-18T05:23:10.876Z,98382.53
2022-11-18T05:24:12.569Z,98387.75
2022-11-18T05:25:14.236Z,98391.28
2022-11-18T05:26:15.943Z,98372.78
2022-11-18T05:27:17.949Z,98386.13
2022-11-18T05:28:19.513Z,98388.84
2022-11-18T05:29:21.650Z,98391.44
2022-11-18T05:30:23.302Z,98390.69
2022-11-18T05:31:24.977Z,98394.19
2022-11-18T05:32:26.660Z,98382.19
2022-11-18T05:33:28.229Z,98390.94
2022-11-18T05:34:29.783Z,98381.28
2022-11-18T05:35:31.416Z,98396.13
2022-11-18T05:36:33.000Z,98392.69
2022-11-18T05:37:34.633Z,98396.13
2022-11-18T05:38:36.848Z,98393.59
2022-11-18T05:39:38.589Z,98395.19
2022-11-18T05:40:42.745Z,98390.97
2022-11-18T05:42:02.984Z,98407.19
2022-11-18T05:43:13.420Z,98391.69
2022-11-18T05:44:15.307Z,98401.84
2022-11-18T05:45:16.910Z,98397.53
2022-11-18T05:46:18.531Z,98400.31
2022-11-18T05:47:20.393Z,98402.19
2022-11-18T05:48:22.042Z,98402.94
2022-11-18T05:49:23.920Z,98402.84
2022-11-18T05:50:25.460Z,98400.31
2022-11-18T05:51:27.142Z,98404.59
2022-11-18T05:52:28.734Z,98407.28
2022-11-18T05:53:30.394Z,98412.50
2022-11-18T05:54:32.573Z,98408.97
2022-11-18T05:55:43.721Z,98408.03
2022-11-18T05:56:45.414Z,98415.75
2022-11-18T05:57:47.016Z,98413.16
2022-11-18T05:58:48.652Z,98404.78
2022-11-18T05:59:50.297Z,98415.59
2022-11-18T06:00:55.927Z,98413.94
2022-11-18T06:02:08.141Z,98412.84
2022-11-18T06:03:17.076Z,98414.69
2022-11-18T06:04:25.541Z,98419.16
2022-11-18T06:05:27.298Z,98424.50
2022-11-18T06:06:29.039Z,98413.16
2022-11-18T06:07:41.643Z,98423.75
2022-11-18T06:08:50.043Z,98423.75
2022-11-18T06:09:58.708Z,98427.19
2022-11-18T06:11:03.058Z,98431.38
2022-11-18T06:12:06.034Z,98436.56
2022-11-18T06:13:12.067Z,98432.16
2022-11-18T06:14:19.688Z,98427.69
2022-11-18T06:15:23.312Z,98431.22
2022-11-18T06:16:29.745Z,98430.31
2022-11-18T06:17:39.455Z,98440.72
2022-11-18T06:18:41.931Z,98438.88
2022-11-18T06:19:43.744Z,98447.34
2022-11-18T06:20:46.163Z,98436.25
2022-11-18T06:21:48.104Z,98441.47
2022-11-18T06:22:53.693Z,98448.44
2022-11-18T06:23:55.825Z,98451.88
2022-11-18T06:24:57.646Z,98452.72
2022-11-18T06:25:59.484Z,98448.34
2022-11-18T06:27:01.529Z,98450.19
2022-11-18T06:28:03.386Z,98459.69
2022-11-18T06:29:08.136Z,98456.13
2022-11-18T06:30:10.237Z,98457.84
2022-11-18T06:31:11.918Z,98457.75
2022-11-18T06:32:13.641Z,98466.41
2022-11-18T06:33:15.348Z,98462.03
2022-11-18T06:34:16.955Z,98459.44
2022-11-18T06:35:18.681Z,98464.50
2022-11-18T06:36:20.335Z,98465.41
2022-11-18T06:37:22.025Z,98465.41
2022-11-18T06:38:25.154Z,98474.19
2022-11-18T06:39:26.886Z,98479.41
2022-11-18T06:40:34.323Z,98479.41
2022-11-18T06:41:36.767Z,98493.25
2022-11-18T06:43:01.542Z,98474.06
2022-11-18T06:44:03.283Z,98475.91
2022-11-18T06:45:06.335Z,98477.56
2022-11-18T06:46:29.948Z,98474.13
2022-11-18T06:47:31.999Z,98479.41
2022-11-18T06:48:33.631Z,98488.91
2022-11-18T06:49:35.271Z,98487.13
2022-11-18T06:50:37.242Z,98501.91
2022-11-18T06:51:39.510Z,98499.31
2022-11-18T06:52:41.205Z,98500.22
2022-11-18T06:53:43.361Z,98500.22
2022-11-18T06:54:45.048Z,98510.47
2022-11-18T06:55:46.612Z,98506.19
2022-11-18T06:56:48.335Z,98506.13
2022-11-18T06:57:49.905Z,98502.50
2022-11-18T06:58:57.549Z,98494.69
2022-11-18T07:00:01.976Z,98503.28
2022-11-18T07:01:18.942Z,98499.84
2022-11-18T07:02:20.690Z,98505.94
2022-11-18T07:03:22.294Z,98513.75
2022-11-18T07:04:23.937Z,98513.75
2022-11-18T07:05:25.524Z,98516.34
2022-11-18T07:06:29.686Z,98512.84
2022-11-18T07:07:31.411Z,98516.97
2022-11-18T07:08:35.356Z,98517.88
2022-11-18T07:09:37.585Z,98522.25
2022-11-18T07:10:39.252Z,98522.16
2022-11-18T07:11:41.412Z,98527.47
2022-11-18T07:12:42.971Z,98528.28
2022-11-18T07:13:45.206Z,98530.97
2022-11-18T07:14:47.101Z,98530.97
2022-11-18T07:15:48.675Z,98526.63
2022-11-18T07:16:50.207Z,98530.81
2022-11-18T07:17:52.020Z,98531.59
2022-11-18T07:18:55.563Z,98532.34
2022-11-18T07:19:57.142Z,98533.09
2022-11-18T07:21:02.518Z,98531.34
2022-11-18T07:22:04.116Z,98528.50
2022-11-18T07:23:05.611Z,98533.81
2022-11-18T07:24:08.676Z,98532.19
2022-11-18T07:25:10.309Z,98534.78
2022-11-18T07:26:12.785Z,98532.19
2022-11-18T07:27:14.346Z,98531.44
2022-11-18T07:28:15.947Z,98540.06
2022-11-18T07:29:17.768Z,98533.09
2022-11-18T07:30:19.557Z,98533.84
2022-11-18T07:31:21.380Z,98542.41
2022-11-18T07:32:22.944Z,98538.91
2022-11-18T07:33:24.561Z,98547.56
2022-11-18T07:34:26.139Z,98543.22
2022-11-18T07:35:27.666Z,98544.72
2022-11-18T07:36:35.389Z,98544.53
2022-11-18T07:37:37.638Z,98547.09
2022-11-18T07:38:40.019Z,98552.34
2022-11-18T07:39:41.718Z,98546.47
2022-11-18T07:40:43.429Z,98551.69
2022-11-18T07:41:45.059Z,98545.63
2022-11-18T07:42:46.662Z,98535.22
2022-11-18T07:43:50.383Z,98549.75
2022-11-18T07:44:52.244Z,98556.50
2022-11-18T07:45:53.845Z,98552.91
2022-11-18T07:46:55.480Z,98553.66
2022-11-18T07:47:57.053Z,98562.06
2022-11-18T07:49:01.433Z,98566.34
2022-11-18T07:50:04.690Z,98557.44
2022-11-18T07:51:06.644Z,98555.69
2022-11-18T07:52:08.477Z,98562.41
2022-11-18T07:53:10.143Z,98565.00
2022-11-18T07:54:13.932Z,98567.50
2022-11-18T07:55:15.673Z,98558.03
2022-11-18T07:56:18.013Z,98561.50
2022-11-18T07:57:19.601Z,98564.03
2022-11-18T07:58:21.469Z,98574.22
2022-11-18T07:59:23.092Z,98568.19
2022-11-18T08:00:24.790Z,98564.75
2022-11-18T08:01:31.033Z,98551.06
2022-11-18T08:02:32.958Z,98567.84
2022-11-18T08:03:34.881Z,98571.22
2022-11-18T08:04:37.869Z,98568.69
2022-11-18T08:05:39.781Z,98576.31
2022-11-18T08:06:41.413Z,98574.50
2022-11-18T08:07:43.130Z,98580.38
2022-11-18T08:08:44.923Z,98583.59
2022-11-18T08:09:46.470Z,98573.78
2022-11-18T08:10:48.022Z,98580.03
2022-11-18T08:11:49.555Z,98579.88
2022-11-18T08:12:51.444Z,98586.09
2022-11-18T08:13:53.146Z,98580.03
2022-11-18T08:14:54.774Z,98585.19
2022-11-18T08:15:56.879Z,98583.50
2022-11-18T08:16:58.541Z,98584.44
2022-11-18T08:18:00.080Z,98593.75
2022-11-18T08:19:01.705Z,98580.59
2022-11-18T08:20:03.737Z,98592.50
2022-11-18T08:21:06.010Z,98587.06
2022-11-18T08:22:07.658Z,98587.66
2022-11-18T08:23:09.441Z,98589.91
2022-11-18T08:24:11.140Z,98600.84
2022-11-18T08:25:13.117Z,98587.81
2022-11-18T08:26:15.142Z,98589.16
2022-11-18T08:27:16.783Z,98594.53
2022-11-18T08:28:18.465Z,98601.53
2022-11-18T08:29:25.045Z,98599.72
2022-11-18T08:30:27.587Z,98593.34
2022-11-18T08:31:33.217Z,98600.53
2022-11-18T08:32:35.412Z,98601.59
2022-11-18T08:33:37.187Z,98598.97
2022-11-18T08:34:38.785Z,98598.97
2022-11-18T08:35:40.432Z,98600.94
2022-11-18T08:36:42.060Z,98598.38
2022-11-18T08:37:43.769Z,98593.97
2022-11-18T08:38:45.645Z,98594.72
2022-11-18T08:39:47.379Z,98603.28
2022-11-18T08:40:49.124Z,98597.97
2022-11-18T08:41:50.686Z,98601.09
2022-11-18T08:42:52.645Z,98606.47
2022-11-18T08:43:54.324Z,98608.41
2022-11-18T08:44:55.900Z,98609.41
2022-11-18T08:45:57.563Z,98607.75
2022-11-18T08:46:59.211Z,98603.28
2022-11-18T08:48:00.955Z,98617.97
2022-11-18T08:49:03.022Z,98611.97
2022-11-18T08:50:06.809Z,98607.66
2022-11-18T08:51:13.165Z,98617.06
2022-11-18T08:52:14.758Z,98610.84
2022-11-18T08:53:16.710Z,98617.66
2022-11-18T08:54:18.498Z,98609.50
2022-11-18T08:55:20.085Z,98614.72
2022-11-18T08:56:23.643Z,98616.06
2022-11-18T08:57:25.211Z,98614.41
2022-11-18T08:58:27.146Z,98619.41
2022-11-18T08:59:28.979Z,98628.19
2022-11-18T09:00:31.410Z,98619.59
2022-11-18T09:01:33.130Z,98623.97
2022-11-18T09:02:34.788Z,98629.94
2022-11-18T09:03:37.025Z,98624.47
2022-11-18T09:04:38.576Z,98625.22
2022-11-18T09:05:40.144Z,98632.88
2022-11-18T09:06:41.775Z,98624.13
2022-11-18T09:07:43.558Z,98626.91
2022-11-18T09:08:45.492Z,98649.53
2022-11-18T09:09:47.584Z,98632.19
2022-11-18T09:10:49.426Z,98648.69
2022-11-18T09:11:51.452Z,98638.44
2022-11-18T09:12:53.506Z,98637.59
2022-11-18T09:15:21.433Z,98642.88
2022-11-18T09:16:28.618Z,98648.34
2022-11-18T09:17:30.505Z,98644.91
2022-11-18T09:18:33.730Z,98627.25
2022-11-18T09:19:50.528Z,98640.72
2022-11-18T09:21:01.634Z,98651.31
2022-11-18T09:22:07.185Z,98640.94
2022-11-18T09:23:08.850Z,98646.84
2022-11-18T09:24:11.554Z,98640.63
2022-11-18T09:25:13.217Z,98649.31
2022-11-18T09:26:26.476Z,98652.56
2022-11-18T09:27:28.143Z,98640.13
2022-11-18T09:28:30.139Z,98641.63
2022-11-18T09:29:32.771Z,98648.03
2022-11-18T09:30:34.412Z,98646.28
2022-11-18T09:31:36.350Z,98652.41
2022-11-18T09:32:38.133Z,98657.34
2022-11-18T09:33:40.063Z,98656.09
2022-11-18T09:34:42.796Z,98663.00
2022-11-18T09:35:45.520Z,98660.47
2022-11-18T09:36:47.138Z,98662.22
2022-11-18T09:37:48.809Z,98661.91
2022-11-18T09:38:53.259Z,98666.59
2022-11-18T09:39:55.273Z,98662.34
2022-11-18T09:41:06.260Z,98660.47
2022-11-18T09:42:32.851Z,98674.97
2022-11-18T09:43:40.236Z,98676.13
2022-11-18T09:44:49.573Z,98672.25
2022-11-18T09:45:59.662Z,98671.06
2022-11-18T09:47:25.208Z,98670.50
2022-11-18T09:48:47.740Z,98677.28
2022-11-18T09:49:49.900Z,98677.47
2022-11-18T09:50:52.313Z,98682.69
2022-11-18T09:51:54.860Z,98690.44
2022-11-18T09:53:18.161Z,98688.50
2022-11-18T09:54:23.692Z,98693.44
2022-11-18T09:55:25.655Z,98682.44
2022-11-18T09:56:27.794Z,98679.75
2022-11-18T09:57:37.575Z,98688.66
2022-11-18T09:58:39.208Z,98678.50
2022-11-18T09:59:41.547Z,98694.63
2022-11-18T10:00:44.421Z,98685.88
2022-11-18T10:01:47.734Z,98690.78
2022-11-18T10:02:55.251Z,98692.28
2022-11-18T10:03:56.905Z,98692.94
2022-11-18T10:05:23.104Z,98698.69
2022-11-18T10:06:27.863Z,98689.06
2022-11-18T10:07:44.039Z,98704.06
2022-11-18T10:09:05.719Z,98695.66
2022-11-18T10:10:16.265Z,98692.28
2022-11-18T10:11:21.941Z,98695.25
2022-11-18T10:12:50.288Z,98697.66
2022-11-18T10:13:58.417Z,98698.34
2022-11-18T10:15:11.973Z,98710.53
2022-11-18T10:16:31.481Z,98712.50
2022-11-18T10:18:10.859Z,98701.44
2022-11-18T10:19:24.666Z,98708.19
2022-11-18T10:20:56.075Z,98713.66
2022-11-18T10:21:57.633Z,98703.84
2022-11-18T10:23:16.979Z,98708.50
2022-11-18T10:24:25.723Z,98712.94
2022-11-18T10:25:27.336Z,98705.84
2022-11-18T10:26:37.547Z,98702.00
2022-11-18T10:27:44.745Z,98714.53
2022-11-18T10:28:46.432Z,98706.50
2022-11-18T10:29:53.967Z,98709.72
2022-11-18T10:31:05.325Z,98719.16
2022-11-18T10:32:18.463Z,98714.53
2022-11-18T10:33:22.780Z,98714.97
2022-11-18T10:34:24.546Z,98716.97
2022-11-18T10:35:37.809Z,98712.78
2022-11-18T10:36:40.624Z,98721.19
2022-11-18T10:39:15.303Z,98719.88
2022-11-18T10:40:28.684Z,98716.28
2022-11-18T10:41:41.648Z,98726.28
2022-11-18T10:42:48.678Z,98721.81
2022-11-18T10:43:52.813Z,98725.50
2022-11-18T10:44:54.686Z,98719.75
2022-11-18T10:45:56.260Z,98720.19
2022-11-18T10:47:23.173Z,98725.91
2022-11-18T10:48:24.762Z,98718.19
2022-11-18T10:49:26.451Z,98729.59
2022-11-18T10:50:34.312Z,98723.75
2022-11-18T10:51:41.530Z,98724.50
2022-11-18T10:52:53.369Z,98719.31
2022-11-18T10:54:08.378Z,98719.22
2022-11-18T10:55:21.100Z,98717.97
2022-11-18T10:56:22.781Z,98717.75
2022-11-18T10:57:26.418Z,98712.28
2022-11-18T10:58:31.169Z,98717.59
2022-11-18T10:59:34.851Z,98726.28
2022-11-18T11:00:38.403Z,98718.09
2022-11-18T11:01:40.149Z,98716.94
2022-11-18T11:02:41.999Z,98713.69
2022-11-18T11:04:20.212Z,98725.88
2022-11-18T11:05:23.468Z,98715.59
2022-11-18T11:06:33.828Z,98717.41
2022-11-18T11:07:37.181Z,98720.00
2022-11-18T11:08:52.684Z,98707.72
2022-11-18T11:10:00.321Z,98717.50
2022-11-18T11:11:02.308Z,98719.53
2022-11-18T11:12:18.080Z,98717.44
2022-11-18T11:13:19.657Z,98725.63
2022-11-18T11:14:26.354Z,98723.03
2022-11-18T11:15:36.467Z,98717.38
2022-11-18T11:17:04.205Z,98725.34
2022-11-18T11:18:41.941Z,98725.09
2022-11-18T11:19:55.752Z,98723.59
2022-11-18T11:20:57.516Z,98723.84
2022-11-18T11:21:59.290Z,98708.28
2022-11-18T11:23:00.938Z,98718.69
2022-11-18T11:24:09.104Z,98720.06
2022-11-18T11:28:37.239Z,98726.78
2022-11-18T11:29:53.270Z,98739.16
2022-11-18T11:31:16.035Z,98730.84
2022-11-18T11:32:28.943Z,98731.84
2022-11-18T11:33:43.969Z,98732.94
2022-11-18T11:34:57.985Z,98734.88
2022-11-18T11:36:25.661Z,98734.22
2022-11-18T11:37:53.510Z,98736.13
2022-11-18T11:39:24.291Z,98732.66
2022-11-18T11:40:54.286Z,98742.03
2022-11-18T11:42:47.084Z,98739.94
2022-11-18T11:44:01.895Z,98741.69
2022-11-18T11:45:14.059Z,98742.38
2022-11-18T11:47:09.746Z,98743.88
2022-11-18T11:48:20.362Z,98743.28
2022-11-18T11:49:39.517Z,98750.44
2022-11-18T11:51:05.601Z,98748.28
2022-11-18T11:52:19.679Z,98749.63
2022-11-18T11:53:21.236Z,98747.09
2022-11-18T11:54:52.805Z,98749.97
2022-11-18T11:56:03.424Z,98743.06
2022-11-18T11:57:23.018Z,98739.09
2022-11-18T11:58:33.790Z,98740.63
2022-11-18T11:59:48.940Z,98745.41
2022-11-18T12:01:06.694Z,98750.81
2022-11-18T12:02:55.644Z,98754.66
2022-11-18T12:04:02.707Z,98756.94
2022-11-18T12:05:20.488Z,98738.66
2022-11-18T12:06:22.136Z,98755.41
2022-11-18T12:07:29.592Z,98761.16
2022-11-18T12:08:32.682Z,98755.25
2022-11-18T12:09:34.262Z,98762.22
2022-11-18T12:10:45.001Z,98751.28
2022-11-18T12:11:55.555Z,98746.31
2022-11-18T12:13:03.218Z,98761.97
2022-11-18T12:14:19.768Z,98755.59
2022-11-18T12:15:27.248Z,98769.22
2022-11-18T12:16:44.225Z,98753.22
2022-11-18T12:18:31.438Z,98761.63
2022-11-18T12:19:38.817Z,98758.94
2022-11-18T12:20:48.840Z,98765.25
2022-11-18T12:21:50.462Z,98772.91
2022-11-18T12:23:11.762Z,98759.97
2022-11-18T12:24:40.166Z,98747.66
2022-11-18T12:25:47.668Z,98756.91
2022-11-18T12:26:50.829Z,98757.13
2022-11-18T12:27:59.376Z,98757.97
2022-11-18T12:29:21.364Z,98753.13
2022-11-18T12:30:23.369Z,98758.66
2022-11-18T12:31:25.697Z,98760.72
2022-11-18T12:32:29.304Z,98762.31
2022-11-18T12:33:31.031Z,98758.88
2022-11-18T12:34:39.552Z,98757.94
2022-11-18T12:35:48.566Z,98762.31
2022-11-18T12:36:50.347Z,98769.53
2022-11-18T12:37:52.187Z,98763.31
2022-11-18T12:38:54.581Z,98764.91
2022-11-18T12:39:56.176Z,98768.03
2022-11-18T12:40:57.778Z,98762.88
2022-11-18T12:42:38.009Z,98759.94
2022-11-18T12:44:01.200Z,98760.91
2022-11-18T12:45:37.770Z,98762.41
2022-11-18T12:46:44.419Z,98771.22
2022-11-18T12:47:47.332Z,98764.50
2022-11-18T12:48:49.101Z,98765.66
2022-11-18T12:49:59.977Z,98778.78
2022-11-18T12:51:21.656Z,98768.50
2022-11-18T12:52:29.482Z,98778.97
2022-11-18T12:53:44.293Z,98776.25
2022-11-18T12:54:49.160Z,98777.91
2022-11-18T12:55:51.049Z,98779.94
2022-11-18T12:56:53.658Z,98774.22
2022-11-18T12:57:55.351Z,98770.00
2022-11-18T12:59:00.214Z,98777.56
2022-11-18T13:00:23.922Z,98773.25
2022-11-18T13:01:36.375Z,98785.91
2022-11-18T13:02:37.994Z,98777.53
2022-11-18T13:03:39.565Z,98776.25
2022-11-18T13:04:45.233Z,98776.25
2022-11-18T13:05:50.146Z,98778.06
2022-11-18T13:06:54.485Z,98771.03
2022-11-18T13:08:17.068Z,98775.25